sensor_id;sensor_type;location;lat;lon;timestamp;pressure;altitude;pressure_sealevel;temperature;humidity
56456;BME280;42354;53.218;6.564;2023-05-22T00:02:06;46979.06;;;-142.92;100.00
56456;BME280;42354;53.218;6.564;2023-05-22T00:04:32;46981.13;;;-142.92;100.00
56456;BME280;42354;53.218;6.564;2023-05-22T00:06:58;46989.34;;;-142.92;100.00
56456;BME280;42354;53.218;6.564;2023-05-22T00:09:24;46981.13;;;-142.92;100.00
56456;BME280;42354;53.218;6.564;2023-05-22T00:11:50;46977.03;;;-142.92;100.00
56456;BME280;42354;53.218;6.564;2023-05-22T00:14:15;46987.28;;;-142.92;100.00
56456;BME280;42354;53.218;6.564;2023-05-22T00:16:41;46987.28;;;-142.92;100.00
56456;BME280;42354;53.218;6.564;2023-05-22T00:19:06;46962.66;;;-142.92;100.00
56456;BME280;42354;53.218;6.564;2023-05-22T00:21:38;46985.22;;;-142.92;100.00
56456;BME280;42354;53.218;6.564;2023-05-22T00:24:04;46981.13;;;-142.92;100.00
56456;BME280;42354;53.218;6.564;2023-05-22T00:26:29;46983.19;;;-142.92;100.00
56456;BME280;42354;53.218;6.564;2023-05-22T00:28:55;46981.13;;;-142.92;100.00
56456;BME280;42354;53.218;6.564;2023-05-22T00:31:20;46991.38;;;-142.92;100.00
56456;BME280;42354;53.218;6.564;2023-05-22T00:33:46;46977.03;;;-142.92;100.00
56456;BME280;42354;53.218;6.564;2023-05-22T00:36:11;46987.28;;;-142.92;100.00
56456;BME280;42354;53.218;6.564;2023-05-22T00:38:37;46979.06;;;-142.92;100.00
56456;BME280;42354;53.218;6.564;2023-05-22T00:41:03;46974.97;;;-142.92;100.00
56456;BME280;42354;53.218;6.564;2023-05-22T00:43:30;46966.75;;;-142.92;100.00
56456;BME280;42354;53.218;6.564;2023-05-22T00:45:55;46968.81;;;-142.92;100.00
56456;BME280;42354;53.218;6.564;2023-05-22T00:48:21;46974.97;;;-142.92;100.00
56456;BME280;42354;53.218;6.564;2023-05-22T00:50:51;46966.75;;;-142.92;100.00
56456;BME280;42354;53.218;6.564;2023-05-22T00:53:21;46989.34;;;-142.92;100.00
56456;BME280;42354;53.218;6.564;2023-05-22T00:55:48;46989.34;;;-142.92;100.00
56456;BME280;42354;53.218;6.564;2023-05-22T00:58:16;46983.19;;;-142.92;100.00
56456;BME280;42354;53.218;6.564;2023-05-22T01:00:42;46987.28;;;-142.92;100.00
56456;BME280;42354;53.218;6.564;2023-05-22T01:03:09;46960.59;;;-142.92;100.00
56456;BME280;42354;53.218;6.564;2023-05-22T01:05:35;46989.34;;;-142.92;100.00
56456;BME280;42354;53.218;6.564;2023-05-22T01:08:02;46972.91;;;-142.92;100.00
56456;BME280;42354;53.218;6.564;2023-05-22T01:10:28;46991.38;;;-142.92;100.00
56456;BME280;42354;53.218;6.564;2023-05-22T01:13:01;46974.97;;;-142.92;100.00
56456;BME280;42354;53.218;6.564;2023-05-22T01:15:45;46974.97;;;-142.92;100.00
56456;BME280;42354;53.218;6.564;2023-05-22T01:20:53;46970.88;;;-142.92;100.00
56456;BME280;42354;53.218;6.564;2023-05-22T01:26:18;46970.88;;;-142.92;100.00
56456;BME280;42354;53.218;6.564;2023-05-22T01:28:54;46985.22;;;-142.92;100.00
56456;BME280;42354;53.218;6.564;2023-05-22T01:31:31;46974.97;;;-142.92;100.00
56456;BME280;42354;53.218;6.564;2023-05-22T01:34:02;46987.28;;;-142.92;100.00
56456;BME280;42354;53.218;6.564;2023-05-22T01:36:31;46972.91;;;-142.92;100.00
56456;BME280;42354;53.218;6.564;2023-05-22T01:38:59;46987.28;;;-142.92;100.00
56456;BME280;42354;53.218;6.564;2023-05-22T01:41:27;46974.97;;;-142.92;100.00
56456;BME280;42354;53.218;6.564;2023-05-22T01:43:53;46977.03;;;-142.92;100.00
56456;BME280;42354;53.218;6.564;2023-05-22T01:46:19;46974.97;;;-142.92;100.00
56456;BME280;42354;53.218;6.564;2023-05-22T01:48:44;46972.91;;;-142.92;100.00
56456;BME280;42354;53.218;6.564;2023-05-22T01:51:19;46995.50;;;-142.92;100.00
56456;BME280;42354;53.218;6.564;2023-05-22T01:53:51;46960.59;;;-142.92;100.00
56456;BME280;42354;53.218;6.564;2023-05-22T01:56:24;46977.03;;;-142.92;100.00
56456;BME280;42354;53.218;6.564;2023-05-22T01:59:25;46985.22;;;-142.92;100.00
56456;BME280;42354;53.218;6.564;2023-05-22T02:01:57;46983.19;;;-142.92;100.00
56456;BME280;42354;53.218;6.564;2023-05-22T02:04:25;46979.06;;;-142.92;100.00
56456;BME280;42354;53.218;6.564;2023-05-22T02:06:52;46989.34;;;-142.92;100.00
56456;BME280;42354;53.218;6.564;2023-05-22T02:09:19;46985.22;;;-142.92;100.00
56456;BME280;42354;53.218;6.564;2023-05-22T02:11:46;46966.75;;;-142.92;100.00
56456;BME280;42354;53.218;6.564;2023-05-22T02:14:12;46985.22;;;-142.92;100.00
56456;BME280;42354;53.218;6.564;2023-05-22T02:16:38;46968.81;;;-142.92;100.00
56456;BME280;42354;53.218;6.564;2023-05-22T02:19:03;46956.50;;;-142.92;100.00
56456;BME280;42354;53.218;6.564;2023-05-22T02:21:35;46977.03;;;-142.92;100.00
56456;BME280;42354;53.218;6.564;2023-05-22T02:24:01;46987.28;;;-142.92;100.00
56456;BME280;42354;53.218;6.564;2023-05-22T02:26:27;46968.81;;;-142.92;100.00
56456;BME280;42354;53.218;6.564;2023-05-22T02:28:52;46999.59;;;-142.92;100.00
56456;BME280;42354;53.218;6.564;2023-05-22T02:31:18;46995.50;;;-142.92;100.00
56456;BME280;42354;53.218;6.564;2023-05-22T02:33:43;46991.38;;;-142.92;100.00
56456;BME280;42354;53.218;6.564;2023-05-22T02:36:09;46979.06;;;-142.92;100.00
56456;BME280;42354;53.218;6.564;2023-05-22T02:38:37;46983.19;;;-142.92;100.00
56456;BME280;42354;53.218;6.564;2023-05-22T02:41:02;46974.97;;;-142.92;100.00
56456;BME280;42354;53.218;6.564;2023-05-22T02:43:28;46985.22;;;-142.92;100.00
56456;BME280;42354;53.218;6.564;2023-05-22T02:45:53;46974.97;;;-142.92;100.00
56456;BME280;42354;53.218;6.564;2023-05-22T02:48:18;46966.75;;;-142.92;100.00
56456;BME280;42354;53.218;6.564;2023-05-22T02:50:44;46970.88;;;-142.92;100.00
56456;BME280;42354;53.218;6.564;2023-05-22T02:53:11;46970.88;;;-142.92;100.00
56456;BME280;42354;53.218;6.564;2023-05-22T02:55:38;46991.38;;;-142.92;100.00
56456;BME280;42354;53.218;6.564;2023-05-22T02:58:04;46995.50;;;-142.92;100.00
56456;BME280;42354;53.218;6.564;2023-05-22T03:00:30;46972.91;;;-142.92;100.00
56456;BME280;42354;53.218;6.564;2023-05-22T03:02:55;46997.53;;;-142.92;100.00
56456;BME280;42354;53.218;6.564;2023-05-22T03:05:20;46987.28;;;-142.92;100.00
56456;BME280;42354;53.218;6.564;2023-05-22T03:07:45;46974.97;;;-142.92;100.00
56456;BME280;42354;53.218;6.564;2023-05-22T03:10:11;46979.06;;;-142.92;100.00
56456;BME280;42354;53.218;6.564;2023-05-22T03:12:36;46970.88;;;-142.92;100.00
56456;BME280;42354;53.218;6.564;2023-05-22T03:15:02;46962.66;;;-142.92;100.00
56456;BME280;42354;53.218;6.564;2023-05-22T03:17:27;46979.06;;;-142.92;100.00
56456;BME280;42354;53.218;6.564;2023-05-22T03:19:53;46989.34;;;-142.92;100.00
56456;BME280;42354;53.218;6.564;2023-05-22T03:22:18;46991.38;;;-142.92;100.00
56456;BME280;42354;53.218;6.564;2023-05-22T03:24:44;46989.34;;;-142.92;100.00
56456;BME280;42354;53.218;6.564;2023-05-22T03:27:12;46979.06;;;-142.92;100.00
56456;BME280;42354;53.218;6.564;2023-05-22T03:29:38;46981.13;;;-142.92;100.00
56456;BME280;42354;53.218;6.564;2023-05-22T03:32:04;46974.97;;;-142.92;100.00
56456;BME280;42354;53.218;6.564;2023-05-22T03:34:29;46983.19;;;-142.92;100.00
56456;BME280;42354;53.218;6.564;2023-05-22T03:36:56;46977.03;;;-142.92;100.00
56456;BME280;42354;53.218;6.564;2023-05-22T03:39:22;46977.03;;;-142.92;100.00
56456;BME280;42354;53.218;6.564;2023-05-22T03:41:47;46985.22;;;-142.92;100.00
56456;BME280;42354;53.218;6.564;2023-05-22T03:44:12;46981.13;;;-142.92;100.00
56456;BME280;42354;53.218;6.564;2023-05-22T03:46:38;46968.81;;;-142.92;100.00
56456;BME280;42354;53.218;6.564;2023-05-22T03:49:03;46974.97;;;-142.92;100.00
56456;BME280;42354;53.218;6.564;2023-05-22T03:51:29;46983.19;;;-142.92;100.00
56456;BME280;42354;53.218;6.564;2023-05-22T03:53:55;46985.22;;;-142.92;100.00
56456;BME280;42354;53.218;6.564;2023-05-22T03:56:21;46995.50;;;-142.92;100.00
56456;BME280;42354;53.218;6.564;2023-05-22T03:58:46;46993.44;;;-142.92;100.00
56456;BME280;42354;53.218;6.564;2023-05-22T04:01:11;46981.13;;;-142.92;100.00
56456;BME280;42354;53.218;6.564;2023-05-22T04:03:37;46983.19;;;-142.92;100.00
56456;BME280;42354;53.218;6.564;2023-05-22T04:06:03;46981.13;;;-142.92;100.00
56456;BME280;42354;53.218;6.564;2023-05-22T04:08:29;46989.34;;;-142.92;100.00
56456;BME280;42354;53.218;6.564;2023-05-22T04:10:55;46977.03;;;-142.92;100.00
56456;BME280;42354;53.218;6.564;2023-05-22T04:13:20;46983.19;;;-142.92;100.00
56456;BME280;42354;53.218;6.564;2023-05-22T04:15:46;46999.59;;;-142.92;100.00
56456;BME280;42354;53.218;6.564;2023-05-22T04:18:11;46974.97;;;-142.92;100.00
56456;BME280;42354;53.218;6.564;2023-05-22T04:20:37;46983.19;;;-142.92;100.00
56456;BME280;42354;53.218;6.564;2023-05-22T04:23:02;46981.13;;;-142.92;100.00
56456;BME280;42354;53.218;6.564;2023-05-22T04:25:28;46979.06;;;-142.92;100.00
56456;BME280;42354;53.218;6.564;2023-05-22T04:27:54;46985.22;;;-142.92;100.00
56456;BME280;42354;53.218;6.564;2023-05-22T04:30:19;46985.22;;;-142.92;100.00
56456;BME280;42354;53.218;6.564;2023-05-22T04:32:46;47003.69;;;-142.92;100.00
56456;BME280;42354;53.218;6.564;2023-05-22T04:35:11;46993.44;;;-142.92;100.00
56456;BME280;42354;53.218;6.564;2023-05-22T04:37:40;46993.44;;;-142.92;100.00
56456;BME280;42354;53.218;6.564;2023-05-22T04:40:08;46987.28;;;-142.92;100.00
56456;BME280;42354;53.218;6.564;2023-05-22T04:42:36;46991.38;;;-142.92;100.00
56456;BME280;42354;53.218;6.564;2023-05-22T04:45:03;46987.28;;;-142.92;100.00
56456;BME280;42354;53.218;6.564;2023-05-22T04:47:28;46995.50;;;-142.92;100.00
56456;BME280;42354;53.218;6.564;2023-05-22T04:49:59;46989.34;;;-142.92;100.00
56456;BME280;42354;53.218;6.564;2023-05-22T04:52:27;46981.13;;;-142.92;100.00
56456;BME280;42354;53.218;6.564;2023-05-22T04:54:52;46977.03;;;-142.92;100.00
56456;BME280;42354;53.218;6.564;2023-05-22T04:57:19;46983.19;;;-142.92;100.00
56456;BME280;42354;53.218;6.564;2023-05-22T04:59:45;46999.59;;;-142.92;100.00
56456;BME280;42354;53.218;6.564;2023-05-22T05:02:12;46977.03;;;-142.92;100.00
56456;BME280;42354;53.218;6.564;2023-05-22T05:04:37;46983.19;;;-142.92;100.00
56456;BME280;42354;53.218;6.564;2023-05-22T05:07:03;46981.13;;;-142.92;100.00
56456;BME280;42354;53.218;6.564;2023-05-22T05:09:29;46989.34;;;-142.92;100.00
56456;BME280;42354;53.218;6.564;2023-05-22T05:11:54;46966.75;;;-142.92;100.00
56456;BME280;42354;53.218;6.564;2023-05-22T05:14:20;46995.50;;;-142.92;100.00
56456;BME280;42354;53.218;6.564;2023-05-22T05:16:45;46970.88;;;-142.92;100.00
56456;BME280;42354;53.218;6.564;2023-05-22T05:19:11;46991.38;;;-142.92;100.00
56456;BME280;42354;53.218;6.564;2023-05-22T05:21:37;46989.34;;;-142.92;100.00
56456;BME280;42354;53.218;6.564;2023-05-22T05:24:04;46987.28;;;-142.92;100.00
56456;BME280;42354;53.218;6.564;2023-05-22T05:26:30;46993.44;;;-142.92;100.00
56456;BME280;42354;53.218;6.564;2023-05-22T05:28:55;46979.06;;;-142.92;100.00
56456;BME280;42354;53.218;6.564;2023-05-22T05:31:20;46997.53;;;-142.92;100.00
56456;BME280;42354;53.218;6.564;2023-05-22T05:33:46;46991.38;;;-142.92;100.00
56456;BME280;42354;53.218;6.564;2023-05-22T05:36:13;46997.53;;;-142.92;100.00
56456;BME280;42354;53.218;6.564;2023-05-22T05:38:38;46987.28;;;-142.92;100.00
56456;BME280;42354;53.218;6.564;2023-05-22T05:41:04;46983.19;;;-142.92;100.00
56456;BME280;42354;53.218;6.564;2023-05-22T05:43:30;46991.38;;;-142.92;100.00
56456;BME280;42354;53.218;6.564;2023-05-22T05:45:55;46983.19;;;-142.92;100.00
56456;BME280;42354;53.218;6.564;2023-05-22T05:48:21;46993.44;;;-142.92;100.00
56456;BME280;42354;53.218;6.564;2023-05-22T05:50:46;46970.88;;;-142.92;100.00
56456;BME280;42354;53.218;6.564;2023-05-22T05:53:12;46977.03;;;-142.92;100.00
56456;BME280;42354;53.218;6.564;2023-05-22T05:55:37;46983.19;;;-142.92;100.00
56456;BME280;42354;53.218;6.564;2023-05-22T05:58:03;46985.22;;;-142.92;100.00
56456;BME280;42354;53.218;6.564;2023-05-22T06:00:28;46991.38;;;-142.92;100.00
56456;BME280;42354;53.218;6.564;2023-05-22T06:02:53;46983.19;;;-142.92;100.00
56456;BME280;42354;53.218;6.564;2023-05-22T06:05:20;46987.28;;;-142.92;100.00
56456;BME280;42354;53.218;6.564;2023-05-22T06:07:46;46970.88;;;-142.92;100.00
56456;BME280;42354;53.218;6.564;2023-05-22T06:10:12;46987.28;;;-142.92;100.00
56456;BME280;42354;53.218;6.564;2023-05-22T06:12:37;46991.38;;;-142.92;100.00
56456;BME280;42354;53.218;6.564;2023-05-22T06:15:04;46979.06;;;-142.92;100.00
56456;BME280;42354;53.218;6.564;2023-05-22T06:17:30;46974.97;;;-142.92;100.00
56456;BME280;42354;53.218;6.564;2023-05-22T06:19:56;46983.19;;;-142.92;100.00
56456;BME280;42354;53.218;6.564;2023-05-22T06:22:21;46991.38;;;-142.92;100.00
56456;BME280;42354;53.218;6.564;2023-05-22T06:24:50;46987.28;;;-142.92;100.00
56456;BME280;42354;53.218;6.564;2023-05-22T06:27:16;46993.44;;;-142.92;100.00
56456;BME280;42354;53.218;6.564;2023-05-22T06:29:41;46974.97;;;-142.92;100.00
56456;BME280;42354;53.218;6.564;2023-05-22T06:32:06;46983.19;;;-142.92;100.00
56456;BME280;42354;53.218;6.564;2023-05-22T06:34:32;46981.13;;;-142.92;100.00
56456;BME280;42354;53.218;6.564;2023-05-22T06:36:58;46974.97;;;-142.92;100.00
56456;BME280;42354;53.218;6.564;2023-05-22T06:39:23;46987.28;;;-142.92;100.00
56456;BME280;42354;53.218;6.564;2023-05-22T06:41:48;46987.28;;;-142.92;100.00
56456;BME280;42354;53.218;6.564;2023-05-22T06:44:14;46962.66;;;-142.92;100.00
56456;BME280;42354;53.218;6.564;2023-05-22T06:46:39;46995.50;;;-142.92;100.00
56456;BME280;42354;53.218;6.564;2023-05-22T06:49:05;46983.19;;;-142.92;100.00
56456;BME280;42354;53.218;6.564;2023-05-22T06:51:30;46983.19;;;-142.92;100.00
56456;BME280;42354;53.218;6.564;2023-05-22T06:53:56;46995.50;;;-142.92;100.00
56456;BME280;42354;53.218;6.564;2023-05-22T06:56:22;46979.06;;;-142.92;100.00
56456;BME280;42354;53.218;6.564;2023-05-22T06:58:48;46985.22;;;-142.92;100.00
56456;BME280;42354;53.218;6.564;2023-05-22T07:01:14;46991.38;;;-142.92;100.00
56456;BME280;42354;53.218;6.564;2023-05-22T07:03:39;46987.28;;;-142.92;100.00
56456;BME280;42354;53.218;6.564;2023-05-22T07:06:05;46993.44;;;-142.92;100.00
56456;BME280;42354;53.218;6.564;2023-05-22T07:08:31;46987.28;;;-142.92;100.00
56456;BME280;42354;53.218;6.564;2023-05-22T07:10:57;46981.13;;;-142.92;100.00
56456;BME280;42354;53.218;6.564;2023-05-22T07:13:22;46979.06;;;-142.92;100.00
56456;BME280;42354;53.218;6.564;2023-05-22T07:15:49;46985.22;;;-142.92;100.00
56456;BME280;42354;53.218;6.564;2023-05-22T07:18:15;46977.03;;;-142.92;100.00
56456;BME280;42354;53.218;6.564;2023-05-22T07:20:40;46974.97;;;-142.92;100.00
56456;BME280;42354;53.218;6.564;2023-05-22T07:23:06;46987.28;;;-142.92;100.00
56456;BME280;42354;53.218;6.564;2023-05-22T07:25:32;46983.19;;;-142.92;100.00
56456;BME280;42354;53.218;6.564;2023-05-22T07:27:58;46987.28;;;-142.92;100.00
56456;BME280;42354;53.218;6.564;2023-05-22T07:30:26;46960.59;;;-142.92;100.00
56456;BME280;42354;53.218;6.564;2023-05-22T07:32:51;46983.19;;;-142.92;100.00
56456;BME280;42354;53.218;6.564;2023-05-22T07:35:17;46983.19;;;-142.92;100.00
56456;BME280;42354;53.218;6.564;2023-05-22T07:37:42;46987.28;;;-142.92;100.00
56456;BME280;42354;53.218;6.564;2023-05-22T07:40:08;46981.13;;;-142.92;100.00
56456;BME280;42354;53.218;6.564;2023-05-22T07:42:36;46989.34;;;-142.92;100.00
56456;BME280;42354;53.218;6.564;2023-05-22T07:45:02;46989.34;;;-142.92;100.00
56456;BME280;42354;53.218;6.564;2023-05-22T07:47:28;46983.19;;;-142.92;100.00
56456;BME280;42354;53.218;6.564;2023-05-22T07:49:53;46979.06;;;-142.92;100.00
56456;BME280;42354;53.218;6.564;2023-05-22T07:52:18;46983.19;;;-142.92;100.00
56456;BME280;42354;53.218;6.564;2023-05-22T07:54:45;46985.22;;;-142.92;100.00
56456;BME280;42354;53.218;6.564;2023-05-22T07:57:11;46997.53;;;-142.92;100.00
56456;BME280;42354;53.218;6.564;2023-05-22T07:59:37;46983.19;;;-142.92;100.00
56456;BME280;42354;53.218;6.564;2023-05-22T08:02:02;46987.28;;;-142.92;100.00
56456;BME280;42354;53.218;6.564;2023-05-22T08:04:27;46983.19;;;-142.92;100.00
56456;BME280;42354;53.218;6.564;2023-05-22T08:06:54;46981.13;;;-142.92;100.00
56456;BME280;42354;53.218;6.564;2023-05-22T08:09:19;46983.19;;;-142.92;100.00
56456;BME280;42354;53.218;6.564;2023-05-22T08:11:45;46970.88;;;-142.92;100.00
56456;BME280;42354;53.218;6.564;2023-05-22T08:14:11;46987.28;;;-142.92;100.00
56456;BME280;42354;53.218;6.564;2023-05-22T08:16:36;46983.19;;;-142.92;100.00
56456;BME280;42354;53.218;6.564;2023-05-22T08:19:02;46981.13;;;-142.92;100.00
56456;BME280;42354;53.218;6.564;2023-05-22T08:21:27;46985.22;;;-142.92;100.00
56456;BME280;42354;53.218;6.564;2023-05-22T08:23:53;46977.03;;;-142.92;100.00
56456;BME280;42354;53.218;6.564;2023-05-22T08:26:18;46981.13;;;-142.92;100.00
56456;BME280;42354;53.218;6.564;2023-05-22T08:28:44;46979.06;;;-142.92;100.00
56456;BME280;42354;53.218;6.564;2023-05-22T08:31:10;46983.19;;;-142.92;100.00
56456;BME280;42354;53.218;6.564;2023-05-22T08:33:36;46999.59;;;-142.92;100.00
56456;BME280;42354;53.218;6.564;2023-05-22T08:36:01;46991.38;;;-142.92;100.00
56456;BME280;42354;53.218;6.564;2023-05-22T08:38:26;46985.22;;;-142.92;100.00
56456;BME280;42354;53.218;6.564;2023-05-22T08:40:54;46991.38;;;-142.92;100.00
56456;BME280;42354;53.218;6.564;2023-05-22T08:43:20;46987.28;;;-142.92;100.00
56456;BME280;42354;53.218;6.564;2023-05-22T08:45:51;46983.19;;;-142.92;100.00
56456;BME280;42354;53.218;6.564;2023-05-22T08:48:21;46987.28;;;-142.92;100.00
56456;BME280;42354;53.218;6.564;2023-05-22T08:50:52;46983.19;;;-142.92;100.00
56456;BME280;42354;53.218;6.564;2023-05-22T08:53:22;46974.97;;;-142.92;100.00
56456;BME280;42354;53.218;6.564;2023-05-22T08:55:50;46979.06;;;-142.92;100.00
56456;BME280;42354;53.218;6.564;2023-05-22T08:58:16;46997.53;;;-142.92;100.00
56456;BME280;42354;53.218;6.564;2023-05-22T09:00:42;46999.59;;;-142.92;100.00
56456;BME280;42354;53.218;6.564;2023-05-22T09:03:08;46977.03;;;-142.92;100.00
56456;BME280;42354;53.218;6.564;2023-05-22T09:05:38;46987.28;;;-142.92;100.00
56456;BME280;42354;53.218;6.564;2023-05-22T09:08:05;46991.38;;;-142.92;100.00
56456;BME280;42354;53.218;6.564;2023-05-22T09:10:32;46989.34;;;-142.92;100.00
56456;BME280;42354;53.218;6.564;2023-05-22T09:13:06;46987.28;;;-142.92;100.00
56456;BME280;42354;53.218;6.564;2023-05-22T09:15:34;47007.81;;;-142.92;100.00
56456;BME280;42354;53.218;6.564;2023-05-22T09:18:02;46985.22;;;-142.92;100.00
56456;BME280;42354;53.218;6.564;2023-05-22T09:20:27;46979.06;;;-142.92;100.00
56456;BME280;42354;53.218;6.564;2023-05-22T09:22:53;46970.88;;;-142.92;100.00
56456;BME280;42354;53.218;6.564;2023-05-22T09:25:19;46999.59;;;-142.92;100.00
56456;BME280;42354;53.218;6.564;2023-05-22T09:27:47;46989.34;;;-142.92;100.00
56456;BME280;42354;53.218;6.564;2023-05-22T09:30:16;47003.69;;;-142.92;100.00
56456;BME280;42354;53.218;6.564;2023-05-22T09:32:43;46993.44;;;-142.92;100.00
56456;BME280;42354;53.218;6.564;2023-05-22T09:35:11;46995.50;;;-142.92;100.00
56456;BME280;42354;53.218;6.564;2023-05-22T09:37:36;46985.22;;;-142.92;100.00
56456;BME280;42354;53.218;6.564;2023-05-22T09:40:06;46972.91;;;-142.92;99.27
56456;BME280;42354;53.218;6.564;2023-05-22T09:42:33;46979.06;;;-142.92;97.92
56456;BME280;42354;53.218;6.564;2023-05-22T09:45:06;46979.06;;;-142.92;94.89
56456;BME280;42354;53.218;6.564;2023-05-22T09:47:33;46991.38;;;-142.92;94.11
56456;BME280;42354;53.218;6.564;2023-05-22T09:49:59;46983.19;;;-142.92;92.12
56456;BME280;42354;53.218;6.564;2023-05-22T09:52:27;46987.28;;;-142.92;90.23
56456;BME280;42354;53.218;6.564;2023-05-22T09:54:54;46997.53;;;-142.92;88.51
56456;BME280;42354;53.218;6.564;2023-05-22T09:57:23;46981.13;;;-142.92;84.96
56456;BME280;42354;53.218;6.564;2023-05-22T09:59:53;46999.59;;;-142.92;81.66
56456;BME280;42354;53.218;6.564;2023-05-22T10:02:22;46968.81;;;-142.92;79.69
56456;BME280;42354;53.218;6.564;2023-05-22T10:04:49;46989.34;;;-142.92;79.54
56456;BME280;42354;53.218;6.564;2023-05-22T10:07:18;46991.38;;;-142.92;76.38
56456;BME280;42354;53.218;6.564;2023-05-22T10:09:50;46979.06;;;-142.92;75.84
56456;BME280;42354;53.218;6.564;2023-05-22T10:12:20;46995.50;;;-142.92;75.23
56456;BME280;42354;53.218;6.564;2023-05-22T10:14:46;46979.06;;;-142.92;74.21
56456;BME280;42354;53.218;6.564;2023-05-22T10:17:13;46991.38;;;-142.92;73.33
56456;BME280;42354;53.218;6.564;2023-05-22T10:19:40;46977.03;;;-142.92;73.00
56456;BME280;42354;53.218;6.564;2023-05-22T10:22:07;46974.97;;;-142.92;73.29
56456;BME280;42354;53.218;6.564;2023-05-22T10:24:32;46977.03;;;-142.92;72.94
56456;BME280;42354;53.218;6.564;2023-05-22T10:26:58;46970.88;;;-142.92;72.80
56456;BME280;42354;53.218;6.564;2023-05-22T10:29:30;46987.28;;;-142.92;71.84
56456;BME280;42354;53.218;6.564;2023-05-22T10:32:04;46979.06;;;-142.92;70.89
56456;BME280;42354;53.218;6.564;2023-05-22T10:37:23;46979.06;;;-142.92;69.11
56456;BME280;42354;53.218;6.564;2023-05-22T10:42:21;46991.38;;;-142.92;68.76
56456;BME280;42354;53.218;6.564;2023-05-22T10:44:47;46981.13;;;-142.92;68.59
56456;BME280;42354;53.218;6.564;2023-05-22T10:47:13;46970.88;;;-142.92;67.65
56456;BME280;42354;53.218;6.564;2023-05-22T10:49:44;46987.28;;;-142.92;65.81
56456;BME280;42354;53.218;6.564;2023-05-22T10:52:11;46974.97;;;-142.92;65.97
56456;BME280;42354;53.218;6.564;2023-05-22T10:54:43;46985.22;;;-142.92;64.85
56456;BME280;42354;53.218;6.564;2023-05-22T10:57:13;46972.91;;;-142.92;65.37
56456;BME280;42354;53.218;6.564;2023-05-22T10:59:40;46991.38;;;-142.92;64.71
56456;BME280;42354;53.218;6.564;2023-05-22T11:02:25;46985.22;;;-142.92;62.78
56456;BME280;42354;53.218;6.564;2023-05-22T11:07:45;46974.97;;;-142.92;58.27
56456;BME280;42354;53.218;6.564;2023-05-22T11:10:10;46972.91;;;-142.92;56.17
56456;BME280;42354;53.218;6.564;2023-05-22T11:12:35;46974.97;;;-142.92;55.97
56456;BME280;42354;53.218;6.564;2023-05-22T11:15:06;46972.91;;;-142.92;54.09
56456;BME280;42354;53.218;6.564;2023-05-22T11:17:38;46993.44;;;-142.92;54.00
56456;BME280;42354;53.218;6.564;2023-05-22T11:20:12;46987.28;;;-142.92;52.42
56456;BME280;42354;53.218;6.564;2023-05-22T11:22:40;46974.97;;;-142.92;51.92
56456;BME280;42354;53.218;6.564;2023-05-22T11:25:07;46981.13;;;-142.92;51.90
56456;BME280;42354;53.218;6.564;2023-05-22T11:27:35;46977.03;;;-142.92;50.50
56456;BME280;42354;53.218;6.564;2023-05-22T11:30:01;46985.22;;;-142.92;50.24
56456;BME280;42354;53.218;6.564;2023-05-22T11:32:28;46970.88;;;-142.92;49.06
56456;BME280;42354;53.218;6.564;2023-05-22T11:34:55;46979.06;;;-142.92;48.53
56456;BME280;42354;53.218;6.564;2023-05-22T11:37:21;46983.19;;;-142.92;47.68
56456;BME280;42354;53.218;6.564;2023-05-22T11:39:54;46970.88;;;-142.92;47.42
56456;BME280;42354;53.218;6.564;2023-05-22T11:42:20;46981.13;;;-142.92;47.60
56456;BME280;42354;53.218;6.564;2023-05-22T11:44:45;46981.13;;;-142.92;47.33
56456;BME280;42354;53.218;6.564;2023-05-22T11:47:11;46974.97;;;-142.92;46.12
56456;BME280;42354;53.218;6.564;2023-05-22T11:49:36;46979.06;;;-142.92;44.53
56456;BME280;42354;53.218;6.564;2023-05-22T11:52:03;46979.06;;;-142.92;43.94
56456;BME280;42354;53.218;6.564;2023-05-22T11:54:31;46993.44;;;-142.92;43.61
56456;BME280;42354;53.218;6.564;2023-05-22T11:56:57;46962.66;;;-142.92;42.94
56456;BME280;42354;53.218;6.564;2023-05-22T11:59:22;46979.06;;;-142.92;42.47
56456;BME280;42354;53.218;6.564;2023-05-22T12:01:49;46985.22;;;-142.92;41.99
56456;BME280;42354;53.218;6.564;2023-05-22T12:04:14;46977.03;;;-142.92;41.05
56456;BME280;42354;53.218;6.564;2023-05-22T12:06:41;46979.06;;;-142.92;40.50
56456;BME280;42354;53.218;6.564;2023-05-22T12:09:06;46974.97;;;-142.92;40.78
56456;BME280;42354;53.218;6.564;2023-05-22T12:11:35;46970.88;;;-142.92;40.85
56456;BME280;42354;53.218;6.564;2023-05-22T12:14:04;46968.81;;;-142.92;39.76
56456;BME280;42354;53.218;6.564;2023-05-22T12:16:34;46977.03;;;-142.92;38.24
56456;BME280;42354;53.218;6.564;2023-05-22T12:19:04;46979.06;;;-142.92;37.23
56456;BME280;42354;53.218;6.564;2023-05-22T12:21:30;46979.06;;;-142.92;36.25
56456;BME280;42354;53.218;6.564;2023-05-22T12:23:56;46970.88;;;-142.92;36.97
56456;BME280;42354;53.218;6.564;2023-05-22T12:26:22;46972.91;;;-142.92;38.30
56456;BME280;42354;53.218;6.564;2023-05-22T12:28:51;46972.91;;;-142.92;39.17
56456;BME280;42354;53.218;6.564;2023-05-22T12:31:20;46989.34;;;-142.92;38.98
56456;BME280;42354;53.218;6.564;2023-05-22T12:33:47;46968.81;;;-142.92;38.41
56456;BME280;42354;53.218;6.564;2023-05-22T12:36:12;46960.59;;;-142.92;38.26
56456;BME280;42354;53.218;6.564;2023-05-22T12:38:40;46974.97;;;-142.92;39.82
56456;BME280;42354;53.218;6.564;2023-05-22T12:41:05;46970.88;;;-142.92;41.96
56456;BME280;42354;53.218;6.564;2023-05-22T12:43:31;46983.19;;;-142.92;45.25
56456;BME280;42354;53.218;6.564;2023-05-22T12:45:56;46966.75;;;-142.92;49.05